Duvan, Russia
Current Conditions -  °F | °C
As of 11:30 AM on Wednesday 26 Nov 2014 (Local Time) from UWUU Reporting Station
Broken Clouds Broken Clouds  
Wind Chill:   Ceiling: 1200
Heat Index: 14°   Visibility: 6mi
Dew Point: 10°   Wind: 11mph
Humidity: 86%   Direction: 200°SSW
Pressure: 30.33"   Gusts: NA
Location:  55.7°N, 57.89°E
Report Text: UWUU 260630Z 20005MPS 9999 BKN012 BKN200 M10/M12 Q1027 141///54NOSIG RMK QFE759/1012
Loading
Personal Weather Stations






























Interactive Weather Map New forecast layout! Learn more

10-Day Weather Forecast

Advertisements
Track Severe Weather on mobile